This is the latest recevied weather packets stored in our database for station/object IN3ISU-13. If no packets are shown the sender has not sent any weather packets the latest 10 day(s).
| Time | Temp. | Humidity | Pressure | Rain* | Wind** | Luminosity | Snow |
|---|---|---|---|---|---|---|---|
| 1787983203 | 21.11° C | 74% | 1016 hPa | 0 mm | - | - | - |
| 1787981402 | 20.56° C | 82% | 1016 hPa | 0 mm | - | - | - |
| 1787979602 | 20.56° C | 81% | 1015 hPa | 0 mm | - | - | - |
| 1787976002 | 20.56° C | 80% | 1015 hPa | 0 mm | - | - | - |
| 1787974202 | 20.56° C | 81% | 1015 hPa | 0 mm | - | - | - |
| 1787972402 | 20.56° C | 81% | 1015 hPa | 0 mm | - | - | - |
| 1787970602 | 20.56° C | 81% | 1015 hPa | 0 mm | - | - | - |
| 1787968802 | 20.56° C | 81% | 1015 hPa | 0 mm | - | - | - |
| 1787967002 | 20.56° C | 81% | 1014 hPa | 0 mm | - | - | - |
| 1787965202 | 20.56° C | 81% | 1015 hPa | 0 mm | - | - | - |
| 1787963402 | 20.56° C | 81% | 1014 hPa | 0 mm | - | - | - |
| 1787959803 | 20.56° C | 81% | 1015 hPa | 0 mm | - | - | - |
| 1787941803 | 23.33° C | 79% | 1014 hPa | 1.78 mm | - | - | - |
| 1787936402 | 26.11° C | 76% | 1016 hPa | 1.27 mm | - | - | - |
| 1787934602 | 26.11° C | 76% | 1016 hPa | 1.27 mm | - | - | - |
| 1787932803 | 26.67° C | 75% | 1016 hPa | 0.51 mm | - | - | - |
| 1787931002 | 32.22° C | 17% | 1015 hPa | 0.76 mm | - | - | - |
| 1787929202 | 34.44° C | 24% | 1013 hPa | 1.02 mm | - | - | - |
| 1787925610 | 34.44° C | 28% | 1012 hPa | 0 mm | - | - | - |
| 1787923802 | 34.44° C | 27% | 1013 hPa | 0 mm | - | - | - |
| 1787922002 | 33.89° C | 29% | 1013 hPa | 0 mm | - | - | - |
| 1787920202 | 33.89° C | 29% | 1013 hPa | 0 mm | - | - | - |
| 1787918402 | 33.33° C | 30% | 1014 hPa | 0 mm | - | - | - |
| 1787916602 | 31.11° C | 45% | 1014 hPa | 0 mm | - | - | - |
| 1787914801 | 30.56° C | 43% | 1015 hPa | 0 mm | - | - | - |
* Rain latest hour (hover to see other rain measurements)
** Current wind speed in m/s (hover to see current wind gust speed)